Time;durP1;ratioP1;P1;durP2;ratioP2;P2;SDS_P1;SDS_P2;PMS_P1;PMS_P2;Temp;Humidity;BMP_temperature;BMP_pressure;BME280_temperature;BME280_humidity;BME280_pressure;Samples;Min_cycle;Max_cycle;Signal;HPM_P1;HPM_P2
2023/02/21 02:14:21;;;;;;;0.50;0.50;;;;;;;12.41;89.01;101243.97;6049959;29;20229;-71
2023/02/21 02:17:56;;;;;;;0.50;0.50;;;;;;;12.72;87.87;101259.13;6050496;29;20248;-72
2023/02/21 02:21:56;;;;;;;0.50;0.43;;;;;;;12.55;88.73;101253.56;6043542;29;20229;-71
2023/02/21 02:25:27;;;;;;;1.37;1.00;;;;;;;12.78;87.49;101257.72;5999408;29;20225;-71
2023/02/21 02:29:08;;;;;;;0.40;0.40;;;;;;;12.99;86.98;101257.59;6051961;29;20221;-70
2023/02/21 02:32:55;;;;;;;3.10;1.17;;;;;;;12.52;89.35;101249.28;6065113;29;20241;-70
2023/02/21 02:36:22;;;;;;;1.80;0.40;;;;;;;12.53;88.63;101256.41;6058192;29;20237;-71
2023/02/21 02:39:51;;;;;;;1.30;0.63;;;;;;;11.83;91.17;101245.63;6057486;29;20256;-71
2023/02/21 02:43:20;;;;;;;0.57;0.50;;;;;;;12.27;90.95;101262.44;6066589;29;20229;-72
2023/02/21 02:46:43;;;;;;;0.63;0.63;;;;;;;12.43;89.92;101250.09;6052939;29;20552;-71
2023/02/21 02:50:06;;;;;;;0.80;0.60;;;;;;;12.39;89.68;101262.19;6058326;29;20236;-71
2023/02/21 02:53:30;;;;;;;0.60;0.60;;;;;;;12.53;88.24;101256.41;6056969;29;20835;-72
2023/02/21 02:56:53;;;;;;;0.83;0.70;;;;;;;12.39;89.17;101261.38;6058489;29;20233;-72
2023/02/21 03:00:16;;;;;;;0.70;0.70;;;;;;;12.47;88.94;101254.28;6058582;29;20241;-72
2023/02/21 03:03:52;;;;;;;1.70;0.50;;;;;;;12.71;88.40;101256.56;6050787;29;20264;-71
2023/02/21 03:07:21;;;;;;;0.50;0.50;;;;;;;12.44;89.17;101256.38;6064451;29;20261;-71
2023/02/21 03:10:50;;;;;;;2.63;1.70;;;;;;;12.56;88.85;101256.13;6054456;29;20299;-71
2023/02/21 03:14:15;;;;;;;0.30;0.30;;;;;;;12.37;89.10;101261.47;6027830;29;20618;-70
2023/02/21 03:17:40;;;;;;;0.53;0.53;;;;;;;12.70;88.13;101257.59;6069704;29;20638;-71
2023/02/21 03:21:08;;;;;;;0.70;0.70;;;;;;;12.71;87.66;101259.28;6067606;29;20236;-71
2023/02/21 03:24:30;;;;;;;2.60;0.83;;;;;;;12.63;87.49;101257.28;6052177;29;20236;-71
2023/02/21 03:27:54;;;;;;;0.70;0.70;;;;;;;12.62;87.63;101270.97;6056930;29;20338;-71
2023/02/21 03:31:24;;;;;;;0.50;0.50;;;;;;;12.57;88.42;101259.69;6058421;29;20587;-72
2023/02/21 03:34:45;;;;;;;0.50;0.50;;;;;;;12.75;87.05;101266.97;6055181;29;20232;-72
2023/02/21 03:38:09;;;;;;;0.97;0.93;;;;;;;12.81;86.73;101258.28;6060392;29;20241;-71
2023/02/21 03:41:31;;;;;;;0.40;0.40;;;;;;;12.70;86.46;101258.41;6048641;29;20241;-72
2023/02/21 03:44:53;;;;;;;0.40;0.40;;;;;;;12.46;87.80;101270.63;6068632;29;20233;-73
2023/02/21 03:48:14;;;;;;;0.40;0.40;;;;;;;12.42;88.85;101270.06;6049910;29;20324;-71
2023/02/21 03:51:36;;;;;;;0.50;0.50;;;;;;;12.46;87.88;101270.63;6061901;29;20735;-71
2023/02/21 03:54:56;;;;;;;1.27;0.47;;;;;;;12.75;86.82;101276.94;6070559;29;20272;-71
2023/02/21 03:58:19;;;;;;;0.43;0.43;;;;;;;12.59;87.29;101284.75;6061120;29;20359;-71
2023/02/21 04:01:42;;;;;;;0.73;0.50;;;;;;;12.56;88.07;101274.19;6070086;29;20244;-70
2023/02/21 04:05:03;;;;;;;0.47;0.47;;;;;;;12.48;87.82;101280.31;6058972;29;20611;-72
2023/02/21 04:08:24;;;;;;;0.67;0.60;;;;;;;12.72;86.67;101278.06;6058764;29;20750;-72
2023/02/21 04:11:46;;;;;;;0.73;0.53;;;;;;;12.38;88.28;101281.28;6065708;29;20828;-71
2023/02/21 04:15:08;;;;;;;0.47;0.47;;;;;;;12.42;88.58;101285.41;6058523;29;20233;-71
2023/02/21 04:18:30;;;;;;;0.40;0.40;;;;;;;12.21;88.74;101285.47;6060337;29;20241;-71
2023/02/21 04:21:54;;;;;;;0.43;0.43;;;;;;;12.18;89.13;101288.47;6061054;29;20627;-71
2023/02/21 04:25:15;;;;;;;0.43;0.43;;;;;;;12.58;87.42;101288.44;6053148;29;20565;-71
2023/02/21 04:28:42;;;;;;;0.40;0.40;;;;;;;12.49;87.56;101294.69;6043577;29;20519;-71
2023/02/21 04:32:04;;;;;;;0.40;0.40;;;;;;;12.22;87.73;101281.81;6059243;29;20256;-71
2023/02/21 04:35:28;;;;;;;1.50;0.90;;;;;;;12.24;87.87;101293.34;6060508;29;20236;-72
2023/02/21 04:38:52;;;;;;;0.60;0.60;;;;;;;12.14;87.39;101287.00;6052685;29;20912;-72
2023/02/21 04:42:13;;;;;;;1.07;1.03;;;;;;;12.18;86.02;101291.19;6067807;29;20237;-71
2023/02/21 04:45:34;;;;;;;1.33;0.90;;;;;;;12.12;84.17;101270.06;6052492;29;20716;-71
2023/02/21 04:48:55;;;;;;;4.57;2.67;;;;;;;11.90;82.57;101276.53;6050177;29;20241;-72
2023/02/21 04:52:20;;;;;;;2.60;1.67;;;;;;;11.76;80.84;101266.09;6067701;29;20249;-71
2023/02/21 04:55:40;;;;;;;2.60;1.33;;;;;;;12.15;79.61;101277.06;6062068;29;20575;-71
2023/02/21 04:59:02;;;;;;;2.30;1.67;;;;;;;11.73;80.82;101279.84;6050149;29;20244;-71
2023/02/21 05:02:22;;;;;;;4.17;2.07;;;;;;;11.91;79.97;101274.72;6066874;29;20237;-71
2023/02/21 05:05:43;;;;;;;7.73;2.20;;;;;;;11.82;77.78;101279.06;6061873;29;20240;-71
2023/02/21 05:09:06;;;;;;;3.77;2.97;;;;;;;11.53;80.25;101269.03;6048949;29;20233;-71
2023/02/21 05:12:26;;;;;;;4.60;1.90;;;;;;;11.68;79.50;101275.84;6061309;29;20241;-72
2023/02/21 05:15:47;;;;;;;4.00;2.70;;;;;;;11.47;80.05;101272.28;6060199;29;20267;-72
2023/02/21 05:19:08;;;;;;;3.30;2.67;;;;;;;11.68;80.50;101279.38;6054148;29;20555;-70
2023/02/21 05:22:29;;;;;;;2.47;1.70;;;;;;;11.73;79.27;101276.28;6067992;29;20324;-72
2023/02/21 05:25:51;;;;;;;4.13;2.40;;;;;;;11.49;80.59;101284.66;6052255;29;20626;-71
2023/02/21 05:29:12;;;;;;;3.67;1.57;;;;;;;11.74;80.14;101295.09;6053676;29;20770;-73
2023/02/21 05:32:33;;;;;;;5.77;3.50;;;;;;;11.61;80.18;101296.25;6060247;29;20233;-72
2023/02/21 05:35:53;;;;;;;1.00;1.00;;;;;;;11.74;80.70;101303.19;6053775;29;20237;-71
2023/02/21 05:39:14;;;;;;;3.73;2.40;;;;;;;11.62;81.33;101306.91;6051740;29;20259;-72
2023/02/21 05:42:36;;;;;;;2.10;1.23;;;;;;;11.98;80.85;101300.16;6068228;29;20327;-72
2023/02/21 05:45:57;;;;;;;4.73;1.47;;;;;;;11.45;81.76;101304.81;6060434;29;20245;-72
2023/02/21 05:49:18;;;;;;;2.60;2.40;;;;;;;11.55;81.23;101304.88;6055906;29;20627;-72
2023/02/21 05:52:39;;;;;;;8.40;3.83;;;;;;;11.62;80.82;101300.66;6065036;29;21592;-72
2023/02/21 05:56:00;;;;;;;3.83;1.57;;;;;;;11.35;81.26;101309.25;6050483;29;20493;-71
2023/02/21 05:59:23;;;;;;;5.97;2.53;;;;;;;11.68;80.46;101308.28;6056112;29;20276;-72
2023/02/21 06:02:44;;;;;;;11.40;2.17;;;;;;;11.65;79.84;101319.28;6046746;29;20828;-72
2023/02/21 06:06:06;;;;;;;5.77;2.37;;;;;;;11.74;78.42;101324.81;6055064;29;20229;-72
2023/02/21 06:09:27;;;;;;;4.10;2.37;;;;;;;11.52;79.66;101329.41;6051312;29;22184;-72
2023/02/21 06:12:47;;;;;;;12.67;2.67;;;;;;;11.65;78.40;101333.66;6058259;29;20613;-73
2023/02/21 06:16:10;;;;;;;6.67;4.00;;;;;;;11.64;78.57;101334.63;6048443;29;20321;-72
2023/02/21 06:19:31;;;;;;;4.73;2.53;;;;;;;11.91;77.36;101339.53;6051551;29;20315;-71
2023/02/21 06:22:52;;;;;;;5.63;4.03;;;;;;;11.49;78.14;101332.41;6063451;29;20607;-71
2023/02/21 06:26:14;;;;;;;2.27;2.00;;;;;;;11.57;78.04;101343.41;6042853;29;20244;-72
2023/02/21 06:29:35;;;;;;;4.07;2.43;;;;;;;11.77;77.20;101348.81;6052505;29;20283;-73
2023/02/21 06:32:57;;;;;;;4.27;3.03;;;;;;;11.77;76.79;101351.53;6060370;29;20229;-73
2023/02/21 06:36:21;;;;;;;3.63;2.60;;;;;;;11.86;76.55;101356.16;6060733;29;20236;-73
2023/02/21 06:39:42;;;;;;;16.80;5.80;;;;;;;11.59;77.77;101361.19;6052440;29;20232;-72
2023/02/21 06:43:03;;;;;;;2.43;2.20;;;;;;;11.61;77.39;101364.63;6058474;29;20237;-73
2023/02/21 06:46:26;;;;;;;2.80;1.73;;;;;;;11.74;77.11;101370.72;6057802;29;20253;-73
2023/02/21 06:49:48;;;;;;;10.77;4.73;;;;;;;11.75;76.95;101374.25;6058518;29;21168;-70
2023/02/21 06:53:09;;;;;;;5.03;1.80;;;;;;;11.91;75.63;101374.66;6053926;29;20237;-71
2023/02/21 06:56:30;;;;;;;6.30;4.40;;;;;;;11.72;76.00;101369.13;6052783;29;20253;-72
2023/02/21 06:59:51;;;;;;;7.00;4.73;;;;;;;11.62;76.13;101369.00;6051513;29;20232;-72
2023/02/21 07:03:12;;;;;;;9.13;2.87;;;;;;;11.32;76.93;101366.22;6048516;29;20245;-71
2023/02/21 07:06:34;;;;;;;6.33;3.67;;;;;;;11.75;75.99;101368.84;6030385;29;20237;-71
2023/02/21 07:09:55;;;;;;;9.60;2.30;;;;;;;11.68;74.53;101373.09;6040903;29;20311;-71
2023/02/21 07:13:16;;;;;;;4.07;2.00;;;;;;;12.06;74.60;101377.88;6062021;29;20253;-71
2023/02/21 07:16:36;;;;;;;9.23;2.13;;;;;;;11.83;74.53;101378.00;6048399;29;20237;-72
2023/02/21 07:19:57;;;;;;;8.20;4.47;;;;;;;11.61;75.03;101386.22;6059713;29;20248;-72
2023/02/21 07:23:20;;;;;;;4.20;2.13;;;;;;;11.97;74.79;101388.47;6057449;29;20229;-72
2023/02/21 07:26:40;;;;;;;2.20;1.70;;;;;;;11.92;73.38;101387.16;6043083;29;20791;-70
2023/02/21 07:30:01;;;;;;;6.30;2.20;;;;;;;11.72;75.01;101401.53;6052625;29;20232;-71
2023/02/21 07:33:23;;;;;;;11.93;3.87;;;;;;;11.73;75.80;101397.84;6059345;29;20256;-70
2023/02/21 07:36:44;;;;;;;6.23;3.20;;;;;;;12.18;74.37;101404.72;6043224;29;20635;-69
2023/02/21 07:40:07;;;;;;;4.97;2.50;;;;;;;11.97;74.96;101398.44;6052579;29;20240;-70
2023/02/21 07:43:30;;;;;;;4.43;1.90;;;;;;;11.88;75.66;101410.03;6057440;29;20241;-71
2023/02/21 07:46:51;;;;;;;9.57;4.90;;;;;;;12.03;76.47;101400.63;6053117;29;20272;-70
2023/02/21 07:50:12;;;;;;;3.17;2.23;;;;;;;11.61;77.07;101415.06;6059053;29;20268;-72
2023/02/21 07:53:33;;;;;;;16.43;2.87;;;;;;;12.36;74.50;101413.03;6040234;29;20237;-70
2023/02/21 07:56:55;;;;;;;4.07;1.77;;;;;;;11.97;76.31;101422.78;6067464;29;20246;-71
2023/02/21 08:00:16;;;;;;;5.03;2.20;;;;;;;11.98;75.97;101432.56;6056870;29;20323;-71
2023/02/21 08:03:39;;;;;;;8.33;3.80;;;;;;;12.45;74.27;101437.44;6041388;29;20245;-72
2023/02/21 08:07:01;;;;;;;5.20;2.67;;;;;;;12.28;75.15;101437.19;6073707;29;20518;-70
2023/02/21 08:10:24;;;;;;;5.37;3.03;;;;;;;12.44;74.93;101432.16;6058004;29;20682;-73
2023/02/21 08:13:46;;;;;;;7.13;2.83;;;;;;;12.35;75.22;101441.09;6047252;29;20242;-72
2023/02/21 08:17:07;;;;;;;5.07;1.97;;;;;;;12.88;73.05;101444.44;6071134;29;20233;-70
2023/02/21 08:20:28;;;;;;;3.73;2.43;;;;;;;13.20;71.25;101446.00;6061731;29;20237;-70
2023/02/21 08:23:51;;;;;;;6.07;3.40;;;;;;;13.29;70.07;101447.00;6043543;29;20273;-70
2023/02/21 08:27:12;;;;;;;5.23;2.47;;;;;;;13.21;69.96;101446.84;6052475;29;20244;-68
2023/02/21 08:30:34;;;;;;;3.80;2.20;;;;;;;13.01;70.63;101440.50;6068823;29;20627;-71
2023/02/21 08:33:55;;;;;;;4.70;3.60;;;;;;;13.16;69.86;101446.44;6045986;29;20261;-72
2023/02/21 08:37:18;;;;;;;8.20;2.47;;;;;;;12.96;69.95;101444.59;6060756;29;20233;-71
2023/02/21 08:40:39;;;;;;;7.87;2.70;;;;;;;13.33;68.64;101452.00;6029677;29;21182;-70
2023/02/21 08:44:00;;;;;;;5.33;2.83;;;;;;;13.31;67.87;101464.84;6061226;29;20240;-70
2023/02/21 08:47:22;;;;;;;3.33;1.70;;;;;;;13.08;68.50;101455.22;6070187;29;20261;-70
2023/02/21 08:50:43;;;;;;;4.30;3.30;;;;;;;13.28;67.62;101458.84;6066764;29;20596;-69
2023/02/21 08:54:04;;;;;;;6.20;3.00;;;;;;;13.77;66.52;101455.22;6048208;29;20553;-70
2023/02/21 08:57:25;;;;;;;8.43;2.17;;;;;;;13.83;66.14;101457.34;6065689;29;20316;-70
2023/02/21 09:00:45;;;;;;;5.83;3.63;;;;;;;13.49;66.95;101467.72;6077064;29;20331;-68
2023/02/21 09:04:08;;;;;;;15.67;2.47;;;;;;;13.33;66.78;101462.00;6062800;29;20224;-69
2023/02/21 09:07:30;;;;;;;3.93;2.10;;;;;;;13.86;65.74;101467.88;6047773;29;20283;-68
2023/02/21 09:10:51;;;;;;;4.53;3.23;;;;;;;13.95;64.70;101486.88;6069403;29;20228;-70
2023/02/21 09:14:12;;;;;;;4.20;1.97;;;;;;;13.84;64.71;101484.31;6055702;29;20229;-69
2023/02/21 09:17:33;;;;;;;3.13;2.17;;;;;;;13.72;65.61;101484.56;6071241;29;20344;-70
2023/02/21 09:20:56;;;;;;;5.40;3.13;;;;;;;13.43;66.51;101493.50;6070956;29;20229;-69
2023/02/21 09:24:17;;;;;;;12.47;4.17;;;;;;;14.03;64.83;101488.84;6060618;29;20308;-70
2023/02/21 09:27:38;;;;;;;7.03;2.47;;;;;;;14.25;64.38;101496.69;6064894;29;20741;-72
2023/02/21 09:30:58;;;;;;;5.97;2.20;;;;;;;13.92;65.17;101489.00;6062477;29;20229;-70
2023/02/21 09:34:19;;;;;;;5.73;2.23;;;;;;;13.61;65.56;101490.97;6053822;29;20857;-69
2023/02/21 09:37:43;;;;;;;3.93;1.97;;;;;;;14.02;64.44;101488.00;6068064;29;20233;-70
2023/02/21 09:41:06;;;;;;;10.83;3.00;;;;;;;13.80;64.41;101493.72;6071968;29;20241;-70
2023/02/21 09:44:29;;;;;;;6.77;2.57;;;;;;;14.03;63.53;101507.84;6060198;29;20236;-68
2023/02/21 09:47:53;;;;;;;8.47;2.00;;;;;;;14.35;63.42;101511.16;6062794;29;20226;-69
2023/02/21 09:51:14;;;;;;;8.77;3.10;;;;;;;14.15;63.13;101496.69;6068423;29;20233;-68
2023/02/21 09:54:43;;;;;;;4.00;2.43;;;;;;;13.88;62.25;101517.38;6062373;29;20244;-72
2023/02/21 09:58:10;;;;;;;31.17;3.27;;;;;;;13.73;62.12;101514.22;6073452;29;20236;-72
2023/02/21 10:01:44;;;;;;;8.63;2.87;;;;;;;14.00;61.91;101516.25;6056536;29;20268;-71
2023/02/21 10:05:18;;;;;;;9.40;2.07;;;;;;;14.27;60.03;101524.50;6071663;29;20319;-68
2023/02/21 10:08:46;;;;;;;7.43;3.77;;;;;;;14.00;60.29;101519.81;6045605;29;20512;-68
2023/02/21 10:12:17;;;;;;;7.43;3.73;;;;;;;14.14;59.76;101527.50;6076481;29;20678;-69
2023/02/21 10:15:45;;;;;;;3.83;2.07;;;;;;;14.00;59.61;101522.53;6066522;29;20236;-69
2023/02/21 10:19:14;;;;;;;2.03;1.83;;;;;;;14.64;58.16;101525.50;6059916;29;20260;-70
2023/02/21 10:22:39;;;;;;;4.53;2.23;;;;;;;14.53;58.98;101531.09;6069821;29;20260;-70
2023/02/21 10:26:06;;;;;;;8.53;2.80;;;;;;;15.34;57.38;101516.78;6063085;29;20233;-70
2023/02/21 10:29:38;;;;;;;4.10;1.63;;;;;;;15.00;55.48;101530.09;6054828;29;20287;-69
2023/02/21 10:32:59;;;;;;;5.80;2.23;;;;;;;15.29;56.22;101529.97;6064234;29;20289;-70
2023/02/21 10:36:23;;;;;;;3.67;2.30;;;;;;;15.18;55.39;101538.31;6067631;29;20229;-71
2023/02/21 10:39:48;;;;;;;3.90;2.60;;;;;;;15.45;54.69;101529.34;6060375;29;20288;-72
2023/02/21 10:43:13;;;;;;;8.23;2.87;;;;;;;16.08;53.40;101536.53;6065925;29;22287;-71
2023/02/21 10:46:42;;;;;;;4.60;2.67;;;;;;;16.07;53.71;101537.50;6053093;29;20261;-69
2023/02/21 10:50:06;;;;;;;2.73;1.77;;;;;;;16.99;51.98;101540.66;6064554;29;20623;-71
2023/02/21 10:53:29;;;;;;;4.23;2.93;;;;;;;16.75;51.58;101536.75;6040453;29;20312;-68
2023/02/21 10:56:52;;;;;;;9.27;3.50;;;;;;;17.48;49.72;101542.63;6063052;29;20312;-69
2023/02/21 11:00:23;;;;;;;3.20;1.97;;;;;;;18.44;47.51;101538.44;6041882;29;20241;-69
2023/02/21 11:03:48;;;;;;;8.53;2.07;;;;;;;17.52;49.06;101541.28;6066822;29;20233;-68
2023/02/21 11:07:14;;;;;;;7.43;2.03;;;;;;;18.41;47.17;101545.03;6067823;29;20277;-69
2023/02/21 11:10:40;;;;;;;3.00;1.97;;;;;;;18.04;46.30;101531.03;6050177;29;20233;-69
2023/02/21 11:14:20;;;;;;;4.43;1.40;;;;;;;18.02;46.38;101535.81;6055125;29;20244;-70
2023/02/21 11:17:43;;;;;;;8.67;3.47;;;;;;;18.73;44.95;101539.56;6071703;29;20237;-69
2023/02/21 11:21:13;;;;;;;7.40;2.83;;;;;;;18.05;46.74;101540.91;6054360;29;20232;-70
2023/02/21 11:24:34;;;;;;;9.30;3.17;;;;;;;16.42;49.45;101536.63;6054193;29;20232;-70
2023/02/21 11:28:00;;;;;;;3.70;2.83;;;;;;;19.09;43.77;101538.16;6057958;29;20338;-69
2023/02/21 11:31:27;;;;;;;4.73;1.70;;;;;;;22.46;39.03;101520.53;6064428;29;20236;-69
2023/02/21 11:34:48;;;;;;;2.03;1.33;;;;;;;22.01;37.90;101519.88;6050917;29;20233;-70
2023/02/21 11:38:31;;;;;;;4.45;1.38;;;;;;;20.54;40.26;101520.09;6065108;29;20279;-69
2023/02/21 11:41:54;;;;;;;1.42;1.20;;;;;;;19.43;42.18;101526.97;6056299;29;20241;-70
2023/02/21 11:45:22;;;;;;;2.97;1.50;;;;;;;17.24;47.45;101523.41;6060967;29;20686;-69
2023/02/21 11:48:50;;;;;;;2.00;1.17;;;;;;;17.52;48.03;101528.50;6050359;29;20532;-70
2023/02/21 11:52:14;;;;;;;3.70;1.97;;;;;;;17.82;47.20;101523.47;6054849;29;20244;-70
2023/02/21 11:55:37;;;;;;;6.57;2.03;;;;;;;17.37;48.55;101521.09;6060941;29;20343;-71
2023/02/21 11:59:10;;;;;;;5.50;2.80;;;;;;;16.81;49.41;101524.38;6054290;29;20237;-69
2023/02/21 12:03:14;;;;;;;8.83;3.03;;;;;;;16.61;51.32;101537.34;6066721;29;20523;-70
2023/02/21 12:06:44;;;;;;;5.10;1.50;;;;;;;16.17;53.37;101531.97;6051523;29;20237;-71
2023/02/21 12:10:22;;;;;;;4.80;1.30;;;;;;;15.79;54.37;101536.72;6061169;29;23038;-68
2023/02/21 12:13:56;;;;;;;4.57;1.03;;;;;;;15.08;57.01;101527.50;6054075;29;20233;-69
2023/02/21 12:17:41;;;;;;;4.73;1.73;;;;;;;15.31;57.39;101530.66;6065357;29;20241;-69
2023/02/21 12:21:16;;;;;;;3.83;2.97;;;;;;;15.26;58.66;101541.16;6055629;29;20238;-71
2023/02/21 12:24:52;;;;;;;5.10;1.40;;;;;;;15.09;59.19;101529.22;6061584;29;20573;-69
2023/02/21 12:28:21;;;;;;;4.03;1.20;;;;;;;15.18;59.22;101531.03;6072180;29;20538;-69
2023/02/21 12:32:00;;;;;;;2.10;1.93;;;;;;;15.01;60.27;101533.69;6063046;29;20236;-70
2023/02/21 12:35:45;;;;;;;2.60;1.93;;;;;;;14.82;61.51;101525.59;6069114;29;20241;-71
2023/02/21 12:39:24;;;;;;;3.67;1.67;;;;;;;14.92;62.06;101526.41;6067462;29;20259;-69
2023/02/21 12:43:00;;;;;;;3.93;1.70;;;;;;;14.92;62.41;101529.13;6066621;29;20233;-70
2023/02/21 12:46:27;;;;;;;2.80;1.00;;;;;;;14.77;64.12;101523.31;6063862;29;20229;-74
2023/02/21 12:49:54;;;;;;;4.10;1.40;;;;;;;14.33;65.53;101522.13;6049991;29;22173;-72
2023/02/21 12:53:19;;;;;;;3.23;1.17;;;;;;;14.44;65.68;101523.81;6053252;29;20233;-71
2023/02/21 12:56:48;;;;;;;3.80;2.00;;;;;;;14.53;65.85;101530.22;6059288;29;20248;-71
2023/02/21 13:00:16;;;;;;;2.40;1.20;;;;;;;14.45;65.83;101524.69;6059609;29;20252;-71
2023/02/21 13:03:50;;;;;;;1.67;1.20;;;;;;;14.20;66.55;101526.09;6040291;29;20610;-70
2023/02/21 13:07:24;;;;;;;6.83;2.20;;;;;;;14.12;66.64;101532.22;6079884;29;20244;-71
2023/02/21 13:10:55;;;;;;;3.63;2.10;;;;;;;14.29;66.67;101528.84;6049861;29;20240;-70
2023/02/21 13:14:23;;;;;;;2.67;2.40;;;;;;;14.27;66.69;101532.66;6057626;29;20255;-69
2023/02/21 13:17:52;;;;;;;2.47;1.50;;;;;;;14.60;65.62;101531.38;6068000;29;20253;-70
2023/02/21 13:21:27;;;;;;;1.47;1.37;;;;;;;14.76;65.28;101529.75;6062628;29;20268;-70
2023/02/21 13:24:59;;;;;;;2.83;1.83;;;;;;;15.14;64.13;101526.88;6058115;29;20228;-70
2023/02/21 13:28:22;;;;;;;7.13;2.33;;;;;;;15.04;64.80;101528.78;6053981;29;20229;-70
2023/02/21 13:31:44;;;;;;;2.17;1.87;;;;;;;15.27;63.27;101536.59;6067196;29;20237;-71
2023/02/21 13:35:09;;;;;;;1.60;1.50;;;;;;;14.88;63.80;101528.56;6059299;29;20327;-70
2023/02/21 13:38:32;;;;;;;1.57;1.43;;;;;;;14.77;63.75;101526.03;6067068;29;20221;-70
2023/02/21 13:42:01;;;;;;;2.77;1.83;;;;;;;14.51;64.73;101527.69;6066089;29;20248;-70
2023/02/21 13:45:24;;;;;;;2.57;1.60;;;;;;;14.72;64.14;101519.34;6044451;29;20538;-73
2023/02/21 13:48:45;;;;;;;3.07;1.00;;;;;;;14.53;64.05;101525.66;6045692;29;20229;-71
2023/02/21 13:52:27;;;;;;;1.30;1.20;;;;;;;14.12;64.64;101518.66;6064031;29;20245;-70
2023/02/21 13:56:13;;;;;;;3.20;1.37;;;;;;;14.11;65.20;101518.81;6047590;29;20233;-71
2023/02/21 13:59:36;;;;;;;2.77;1.20;;;;;;;14.20;64.01;101529.69;6052402;29;20234;-70
2023/02/21 14:02:59;;;;;;;1.13;1.13;;;;;;;14.27;64.65;101524.50;6066245;29;20241;-71
2023/02/21 14:06:31;;;;;;;4.17;1.97;;;;;;;14.15;64.36;101526.53;6057380;29;20245;-72
2023/02/21 14:09:53;;;;;;;4.07;2.13;;;;;;;14.00;63.47;101527.09;6059145;29;20232;-70
2023/02/21 14:13:25;;;;;;;1.70;1.40;;;;;;;14.55;61.34;101522.81;6066927;29;20233;-73
2023/02/21 14:16:50;;;;;;;2.50;0.93;;;;;;;14.37;62.24;101528.13;6061986;29;20317;-71
2023/02/21 14:20:16;;;;;;;3.17;1.30;;;;;;;14.27;62.30;101521.81;6068027;29;20232;-72
2023/02/21 14:23:42;;;;;;;0.83;0.70;;;;;;;14.58;61.18;101522.53;6054482;29;20619;-71
2023/02/21 14:27:06;;;;;;;3.53;1.37;;;;;;;14.79;61.13;101523.19;6074092;29;20264;-70
2023/02/21 14:30:33;;;;;;;1.63;1.27;;;;;;;14.84;60.83;101516.31;6058307;29;20416;-70
2023/02/21 14:33:58;;;;;;;2.90;1.60;;;;;;;14.24;63.11;101531.09;6054482;29;20272;-69
2023/02/21 14:37:24;;;;;;;4.27;2.07;;;;;;;14.44;62.46;101515.69;6075331;29;20233;-69
2023/02/21 14:40:55;;;;;;;1.80;1.03;;;;;;;14.60;61.53;101528.66;6066684;29;20285;-69
2023/02/21 14:44:28;;;;;;;7.97;2.10;;;;;;;14.50;61.58;101525.94;6063620;29;20225;-69
2023/02/21 14:48:12;;;;;;;2.10;0.87;;;;;;;14.32;62.65;101520.41;6062397;29;20701;-70
2023/02/21 14:52:02;;;;;;;2.27;1.63;;;;;;;14.45;62.59;101513.84;6054240;29;20225;-69
2023/02/21 14:55:36;;;;;;;0.83;0.80;;;;;;;14.22;62.96;101526.81;6064097;29;20237;-70
2023/02/21 14:59:18;;;;;;;1.80;0.77;;;;;;;14.13;63.60;101525.81;6057898;29;20777;-68
2023/02/21 15:02:43;;;;;;;3.43;1.43;;;;;;;14.22;63.90;101524.09;6061396;29;20241;-69
2023/02/21 15:06:10;;;;;;;2.53;1.07;;;;;;;14.10;64.71;101531.50;6066286;29;20264;-69
2023/02/21 15:09:32;;;;;;;1.27;1.00;;;;;;;14.12;64.36;101534.94;6058201;29;20282;-72
2023/02/21 15:12:55;;;;;;;2.27;1.40;;;;;;;14.21;64.58;101527.81;6055955;29;20487;-70
2023/02/21 15:16:16;;;;;;;6.33;1.20;;;;;;;14.38;64.36;101532.53;6057438;29;24325;-70
2023/02/21 15:19:37;;;;;;;3.43;1.17;;;;;;;14.43;63.83;101539.22;6055414;29;20244;-69
2023/02/21 15:23:02;;;;;;;6.90;1.50;;;;;;;14.28;64.36;101539.81;6066637;29;20271;-70
2023/02/21 15:26:28;;;;;;;1.43;1.33;;;;;;;14.35;64.31;101541.81;6066226;29;20234;-72
2023/02/21 15:30:04;;;;;;;3.27;0.90;;;;;;;14.00;65.67;101530.66;6063946;29;20257;-71
2023/02/21 15:33:26;;;;;;;3.67;0.90;;;;;;;13.60;67.07;101530.75;6069876;29;20258;-71
2023/02/21 15:36:51;;;;;;;1.53;0.57;;;;;;;13.85;66.54;101536.66;6062614;29;20237;-71
2023/02/21 15:40:16;;;;;;;2.00;0.87;;;;;;;13.77;67.03;101531.09;6060325;29;20678;-70
2023/02/21 15:43:47;;;;;;;0.83;0.83;;;;;;;14.02;66.07;101530.50;6068687;29;20248;-70
2023/02/21 15:47:12;;;;;;;0.93;0.93;;;;;;;13.90;66.58;101537.06;6063949;29;20327;-70
2023/02/21 15:50:37;;;;;;;0.60;0.60;;;;;;;13.63;67.66;101551.31;6070755;29;20233;-69
2023/02/21 15:54:08;;;;;;;0.87;0.77;;;;;;;13.73;67.46;101535.91;6066084;29;20529;-69
2023/02/21 15:57:29;;;;;;;3.10;0.90;;;;;;;13.58;67.97;101542.72;6075660;29;20233;-69
2023/02/21 16:01:07;;;;;;;4.87;1.10;;;;;;;13.32;68.24;101542.38;6069607;29;20600;-69
2023/02/21 16:04:36;;;;;;;1.07;0.97;;;;;;;13.52;68.31;101548.69;6053472;29;20665;-69
2023/02/21 16:08:03;;;;;;;2.47;1.70;;;;;;;13.62;69.80;101545.03;6059786;29;20769;-71
2023/02/21 16:11:25;;;;;;;1.27;1.10;;;;;;;13.48;69.38;101537.28;6061922;29;20528;-71
2023/02/21 16:14:54;;;;;;;6.20;1.50;;;;;;;13.08;71.08;101538.31;6060987;29;20300;-71
2023/02/21 16:18:18;;;;;;;2.13;1.77;;;;;;;12.98;71.91;101545.47;6067447;29;20240;-70
2023/02/21 16:21:39;;;;;;;1.70;1.50;;;;;;;13.29;70.08;101548.06;6067581;29;20241;-70
2023/02/21 16:25:19;;;;;;;1.70;1.00;;;;;;;13.19;70.76;101547.19;6059543;29;20231;-69
2023/02/21 16:28:41;;;;;;;2.00;1.77;;;;;;;13.35;70.05;101552.09;6049623;29;20660;-68
2023/02/21 16:32:02;;;;;;;3.93;2.30;;;;;;;13.05;71.04;101547.56;6064606;29;20592;-70
2023/02/21 16:35:26;;;;;;;2.40;1.87;;;;;;;12.90;72.15;101553.41;6050774;29;20302;-69
2023/02/21 16:38:47;;;;;;;2.67;2.00;;;;;;;13.02;71.29;101555.03;6049187;29;20646;-68
2023/02/21 16:42:07;;;;;;;2.83;1.53;;;;;;;13.31;70.08;101556.91;6065599;29;20296;-68
2023/02/21 16:45:29;;;;;;;4.10;1.27;;;;;;;13.12;70.49;101550.56;6062606;29;20319;-68
2023/02/21 16:48:53;;;;;;;1.17;1.03;;;;;;;13.15;70.48;101553.00;6051439;29;20282;-69
2023/02/21 16:52:17;;;;;;;2.17;0.90;;;;;;;13.09;71.02;101559.81;6071052;29;20237;-69
2023/02/21 16:55:38;;;;;;;1.73;1.33;;;;;;;13.41;69.69;101562.38;6065100;29;20599;-69
2023/02/21 16:58:59;;;;;;;1.13;0.90;;;;;;;13.43;70.13;101565.81;6049821;29;20233;-70
2023/02/21 17:02:23;;;;;;;3.80;2.10;;;;;;;13.38;69.77;101573.47;6070542;29;20233;-70
2023/02/21 17:05:44;;;;;;;9.77;5.27;;;;;;;13.30;70.01;101574.16;6061639;29;20232;-70
2023/02/21 17:09:06;;;;;;;6.90;4.37;;;;;;;13.47;69.24;101580.78;6067432;29;20331;-69
2023/02/21 17:12:27;;;;;;;6.90;6.20;;;;;;;13.47;69.80;101567.22;6072327;29;20235;-69
2023/02/21 17:15:48;;;;;;;9.73;7.37;;;;;;;13.50;69.49;101578.66;6064610;29;20322;-70
2023/02/21 17:19:11;;;;;;;7.97;4.17;;;;;;;13.16;71.21;101577.22;6058136;29;20624;-69
2023/02/21 17:22:31;;;;;;;3.77;2.23;;;;;;;13.14;71.99;101586.50;6066462;29;20328;-69
2023/02/21 17:25:54;;;;;;;5.77;3.63;;;;;;;13.08;72.04;101590.56;6053973;29;20236;-70
2023/02/21 17:29:15;;;;;;;3.87;2.73;;;;;;;13.24;71.75;101590.97;6062448;29;20233;-70
2023/02/21 17:32:36;;;;;;;4.13;3.73;;;;;;;13.03;72.88;101590.09;6059304;29;20229;-70
2023/02/21 17:35:57;;;;;;;4.30;2.93;;;;;;;13.15;72.37;101590.91;6063141;29;20237;-70
2023/02/21 17:39:20;;;;;;;2.03;1.50;;;;;;;13.06;72.65;101597.97;6044083;29;20244;-69
2023/02/21 17:42:42;;;;;;;5.70;3.23;;;;;;;13.27;72.11;101596.09;6054725;29;20233;-70
2023/02/21 17:46:04;;;;;;;3.17;2.23;;;;;;;12.99;73.15;101601.31;6056467;29;20233;-69
2023/02/21 17:49:26;;;;;;;3.87;2.83;;;;;;;13.29;72.79;101593.22;6044463;29;20237;-69
2023/02/21 17:52:48;;;;;;;2.20;1.97;;;;;;;13.40;71.66;101603.97;6064528;29;20250;-69
2023/02/21 17:56:09;;;;;;;2.73;1.77;;;;;;;13.44;71.77;101611.69;6052267;29;20241;-70
2023/02/21 17:59:31;;;;;;;4.43;1.80;;;;;;;13.36;71.27;101614.25;6064457;29;20620;-70
2023/02/21 18:02:53;;;;;;;6.63;3.87;;;;;;;13.57;71.38;101617.75;6070934;29;20241;-69
2023/02/21 18:06:14;;;;;;;10.57;8.30;;;;;;;13.69;70.72;101618.47;6064218;29;20244;-69